Time;durP1;ratioP1;P1;durP2;ratioP2;P2;SDS_P1;SDS_P2;PMS_P1;PMS_P2;Temp;Humidity;BMP_temperature;BMP_pressure;BME280_temperature;BME280_humidity;BME280_pressure;Samples;Min_cycle;Max_cycle;Signal;HPM_P1;HPM_P2
2023/11/13 00:01:40;;;;;;;23.25;13.32;;;;;;;;;;6138098;28;20054;-96
2023/11/13 00:08:09;;;;;;;21.77;12.88;;;;;;;;;;6119914;28;20107;-96
2023/11/13 00:11:38;;;;;;;23.52;12.20;;;;;;;;;;6129965;28;20055;-96
2023/11/13 00:14:51;;;;;;;20.92;11.85;;;;;;;;;;6156504;28;20123;-96
2023/11/13 00:26:07;;;;;;;16.52;10.20;;;;;;;;;;6289092;28;20882;-96
2023/11/13 00:29:09;;;;;;;17.95;9.82;;;;;;;;;;6232040;28;20030;-83
2023/11/13 00:32:13;;;;;;;15.43;10.52;;;;;;;;;;6236005;28;20050;-83
2023/11/13 00:35:15;;;;;;;17.80;11.45;;;;;;;;;;6244387;28;20050;-83
2023/11/13 00:38:16;;;;;;;17.00;11.10;;;;;;;;;;6252734;28;20048;-84
2023/11/13 00:41:20;;;;;;;22.10;11.57;;;;;;;;;;6246127;28;20050;-83
2023/11/13 00:44:22;;;;;;;19.67;11.35;;;;;;;;;;6220577;28;20050;-83
2023/11/13 00:47:24;;;;;;;16.73;11.10;;;;;;;;;;6223232;28;20065;-84
2023/11/13 00:50:26;;;;;;;20.65;11.75;;;;;;;;;;6237340;28;20050;-83
2023/11/13 00:53:34;;;;;;;17.80;11.70;;;;;;;;;;6249546;28;20077;-83
2023/11/13 00:56:37;;;;;;;19.15;11.18;;;;;;;;;;6249544;28;20054;-84
2023/11/13 00:59:39;;;;;;;14.75;9.55;;;;;;;;;;6210878;28;20067;-83
2023/11/13 01:02:41;;;;;;;16.13;10.48;;;;;;;;;;6193185;28;20046;-84
2023/11/13 01:05:43;;;;;;;16.92;10.75;;;;;;;;;;6195977;28;20066;-83
2023/11/13 01:08:45;;;;;;;22.52;11.18;;;;;;;;;;6199557;28;20023;-84
2023/11/13 01:11:50;;;;;;;16.70;10.98;;;;;;;;;;6194822;28;20043;-83
2023/11/13 01:14:52;;;;;;;18.27;11.20;;;;;;;;;;6188272;28;20094;-84
2023/11/13 01:17:56;;;;;;;19.67;10.75;;;;;;;;;;6193835;28;20296;-84
2023/11/13 01:20:58;;;;;;;18.88;11.02;;;;;;;;;;6196095;28;20054;-83
2023/11/13 01:24:00;;;;;;;21.42;11.13;;;;;;;;;;6197143;28;20088;-84
2023/11/13 01:27:04;;;;;;;19.90;10.70;;;;;;;;;;6191968;28;20122;-83
2023/11/13 01:30:08;;;;;;;20.90;12.05;;;;;;;;;;6214395;28;20063;-84
2023/11/13 01:33:10;;;;;;;17.20;10.43;;;;;;;;;;6217320;28;20055;-83
2023/11/13 01:36:12;;;;;;;17.90;11.63;;;;;;;;;;6218431;28;20065;-83
2023/11/13 01:39:14;;;;;;;21.33;11.15;;;;;;;;;;6215832;28;20053;-84
2023/11/13 01:42:17;;;;;;;18.38;11.60;;;;;;;;;;6212685;28;20054;-83
2023/11/13 01:45:19;;;;;;;18.88;11.40;;;;;;;;;;6222132;28;20098;-83
2023/11/13 01:48:21;;;;;;;20.08;12.50;;;;;;;;;;6213122;28;20055;-84
2023/11/13 01:51:25;;;;;;;20.00;11.82;;;;;;;;;;6218112;28;20042;-83
2023/11/13 01:54:33;;;;;;;21.15;12.35;;;;;;;;;;6217174;28;20042;-84
2023/11/13 01:57:37;;;;;;;22.55;12.23;;;;;;;;;;6212011;28;20133;-83
2023/11/13 02:00:40;;;;;;;19.08;12.00;;;;;;;;;;6211993;28;20050;-83
2023/11/13 02:03:41;;;;;;;20.95;12.60;;;;;;;;;;6215726;28;20051;-84
2023/11/13 02:21:01;;;;;;;24.05;13.20;;;;;;;;;;7287504;22;20034;-96
2023/11/13 02:57:59;;;;;;;26.10;15.00;;;;;;;;;;6487725;22;20020;-96
2023/11/13 04:22:38;;;;;;;22.98;13.20;;;;;;;;;;6699778;22;20091;-96
2023/11/13 04:35:27;;;;;;;24.65;14.05;;;;;;;;;;6644744;22;20304;-96
2023/11/13 04:38:40;;;;;;;;;;;;;;;;;;6499650;22;20044;-96
2023/11/13 04:45:15;;;;;;;27.08;14.85;;;;;;;;;;7414191;22;20068;-96
2023/11/13 04:48:39;;;;;;;25.08;13.50;;;;;;;;;;6332241;22;20090;-84
2023/11/13 04:51:43;;;;;;;28.95;15.25;;;;;;;;;;6249976;28;20057;-83
2023/11/13 04:54:45;;;;;;;25.35;14.20;;;;;;;;;;6246145;28;20061;-84
2023/11/13 04:57:50;;;;;;;28.50;15.55;;;;;;;;;;6259062;28;20113;-83
2023/11/13 05:00:52;;;;;;;27.80;16.10;;;;;;;;;;6241059;28;20056;-83
2023/11/13 05:03:54;;;;;;;32.25;15.15;;;;;;;;;;6241471;28;20068;-83
2023/11/13 05:06:57;;;;;;;28.33;15.90;;;;;;;;;;6239753;28;20050;-83
2023/11/13 05:09:59;;;;;;;29.27;15.93;;;;;;;;;;6236186;28;20070;-84
2023/11/13 05:13:01;;;;;;;25.33;14.70;;;;;;;;;;6238263;28;20038;-83
2023/11/13 05:16:03;;;;;;;27.63;15.27;;;;;;;;;;6223183;28;20053;-83
2023/11/13 05:19:05;;;;;;;26.90;15.15;;;;;;;;;;6240934;28;20064;-83
2023/11/13 05:22:08;;;;;;;30.45;16.02;;;;;;;;;;6241191;28;20117;-83
2023/11/13 05:25:11;;;;;;;30.33;14.80;;;;;;;;;;6236323;28;20046;-83
2023/11/13 05:28:13;;;;;;;30.15;16.23;;;;;;;;;;6242538;28;20552;-84
2023/11/13 05:31:15;;;;;;;25.42;14.50;;;;;;;;;;6247830;28;20050;-83
2023/11/13 05:34:17;;;;;;;25.33;15.35;;;;;;;;;;6240497;28;20069;-83
2023/11/13 05:37:20;;;;;;;25.83;14.90;;;;;;;;;;6238964;28;20106;-84
2023/11/13 05:40:25;;;;;;;28.17;16.23;;;;;;;;;;6234543;28;20053;-83
2023/11/13 05:43:27;;;;;;;23.85;14.18;;;;;;;;;;6239921;28;20042;-84
2023/11/13 05:46:30;;;;;;;26.75;14.73;;;;;;;;;;6243192;28;20060;-83
2023/11/13 05:49:32;;;;;;;27.02;15.82;;;;;;;;;;6241320;28;20053;-83
2023/11/13 05:52:35;;;;;;;28.08;15.13;;;;;;;;;;6235643;28;20081;-84
2023/11/13 05:58:50;;;;;;;26.83;15.43;;;;;;;;;;6663491;23;20067;-96
2023/11/13 06:02:00;;;;;;;28.40;15.02;;;;;;;;;;6787637;23;20038;-97
2023/11/13 06:05:22;;;;;;;27.90;14.82;;;;;;;;;;6474689;22;20048;-96
2023/11/13 06:15:40;;;;;;;27.10;15.85;;;;;;;;;;6232592;28;20029;-96
2023/11/13 06:32:54;;;;;;;25.17;15.07;;;;;;;;;;6143971;28;20039;-96
2023/11/13 06:54:14;;;;;;;26.40;14.82;;;;;;;;;;6254691;28;20087;-96
2023/11/13 07:29:35;;;;;;;28.75;16.00;;;;;;;;;;6040692;29;20140;-96
2023/11/13 07:35:57;;;;;;;23.85;13.57;;;;;;;;;;6146724;28;20041;-96
2023/11/13 07:39:02;;;;;;;23.13;13.90;;;;;;;;;;6193125;28;20509;-96
2023/11/13 07:45:25;;;;;;;21.30;12.73;;;;;;;;;;6190605;28;20053;-96
2023/11/13 07:48:27;;;;;;;21.10;12.60;;;;;;;;;;6159899;28;20132;-96
2023/11/13 07:51:35;;;;;;;16.92;11.73;;;;;;;;;;6162395;28;20498;-96
2023/11/13 08:01:53;;;;;;;18.10;11.80;;;;;;;;;;6107989;28;20051;-96
2023/11/13 08:26:58;;;;;;;17.25;11.45;;;;;;;;;;6063757;29;20052;-96
2023/11/13 08:30:23;;;;;;;25.38;11.27;;;;;;;;;;6030751;29;20077;-96
2023/11/13 08:33:26;;;;;;;21.92;11.95;;;;;;;;;;6062889;29;20053;-96
2023/11/13 08:39:47;;;;;;;15.43;8.93;;;;;;;;;;6155579;28;20086;-96
2023/11/13 08:46:14;;;;;;;12.70;9.20;;;;;;;;;;6181344;28;20037;-96
2023/11/13 08:49:41;;;;;;;14.20;9.40;;;;;;;;;;6192936;28;20053;-96
2023/11/13 08:56:14;;;;;;;15.80;8.75;;;;;;;;;;6262969;28;20056;-96
2023/11/13 08:59:17;;;;;;;13.50;7.78;;;;;;;;;;6264354;28;20045;-96
2023/11/13 09:02:25;;;;;;;15.35;8.85;;;;;;;;;;6242529;28;20045;-96
2023/11/13 09:05:28;;;;;;;12.02;7.88;;;;;;;;;;6250830;28;20152;-96
2023/11/13 09:08:35;;;;;;;12.75;8.40;;;;;;;;;;6258103;28;20038;-96
2023/11/13 09:15:19;;;;;;;15.43;8.43;;;;;;;;;;6240063;28;20488;-96
2023/11/13 09:18:23;;;;;;;11.73;8.45;;;;;;;;;;6259782;28;20049;-96
2023/11/13 09:21:24;;;;;;;11.98;8.10;;;;;;;;;;6261699;28;20042;-95
2023/11/13 09:24:28;;;;;;;12.95;8.52;;;;;;;;;;6263932;28;20129;-95
2023/11/13 09:27:30;;;;;;;;;;;;;;;;;;6166348;28;20085;-95
2023/11/13 09:30:34;;;;;;;11.85;8.48;;;;;;;;;;6258850;28;19932;-96
2023/11/13 09:33:36;;;;;;;15.60;8.38;;;;;;;;;;6258838;28;20071;-96
2023/11/13 09:36:40;;;;;;;13.10;8.32;;;;;;;;;;6262112;28;20057;-96
2023/11/13 09:46:24;;;;;;;13.52;8.13;;;;;;;;;;6265190;28;20100;-96
2023/11/13 09:53:47;;;;;;;12.80;8.63;;;;;;;;;;6229987;28;20049;-96
2023/11/13 10:04:22;;;;;;;14.35;9.50;;;;;;;;;;6172234;28;20108;-96
2023/11/13 10:07:27;;;;;;;15.15;9.45;;;;;;;;;;6190876;28;20052;-96
2023/11/13 10:10:32;;;;;;;13.63;9.70;;;;;;;;;;6192192;28;20456;-96
2023/11/13 10:13:41;;;;;;;15.98;10.32;;;;;;;;;;6191164;28;20129;-96
2023/11/13 10:20:11;;;;;;;19.55;11.52;;;;;;;;;;6259353;28;20080;-96
2023/11/13 10:23:14;;;;;;;18.98;12.13;;;;;;;;;;6215090;28;20053;-96
2023/11/13 10:26:30;;;;;;;15.65;11.25;;;;;;;;;;6263010;28;20061;-96
2023/11/13 10:29:32;;;;;;;13.80;10.43;;;;;;;;;;6243071;28;20075;-96
2023/11/13 10:36:04;;;;;;;15.13;10.10;;;;;;;;;;6256694;28;20049;-95
2023/11/13 10:39:11;;;;;;;13.35;9.88;;;;;;;;;;6222444;28;20051;-96
2023/11/13 10:42:18;;;;;;;17.58;10.73;;;;;;;;;;6239277;28;20046;-96
2023/11/13 10:52:38;;;;;;;14.32;9.93;;;;;;;;;;6236328;28;20041;-96
2023/11/13 10:55:42;;;;;;;15.70;10.13;;;;;;;;;;6241554;28;20049;-96
2023/11/13 10:58:44;;;;;;;12.50;9.27;;;;;;;;;;6263514;28;20411;-96
2023/11/13 11:01:51;;;;;;;14.88;10.48;;;;;;;;;;6266048;28;20050;-96
2023/11/13 11:08:12;;;;;;;13.07;10.02;;;;;;;;;;6265665;28;20048;-96
2023/11/13 11:11:35;;;;;;;15.82;10.38;;;;;;;;;;6244961;28;20045;-96
2023/11/13 11:14:40;;;;;;;;;;;;;;;;;;6268715;28;20045;-96
2023/11/13 11:18:09;;;;;;;15.90;10.38;;;;;;;;;;6265054;28;20329;-96
2023/11/13 11:28:43;;;;;;;16.83;10.88;;;;;;;;;;6213905;28;20069;-93
2023/11/13 11:31:49;;;;;;;15.45;10.43;;;;;;;;;;6210524;28;20080;-96
2023/11/13 11:38:30;;;;;;;14.60;9.93;;;;;;;;;;6224684;28;20037;-96
2023/11/13 11:41:43;;;;;;;18.40;9.65;;;;;;;;;;6228004;28;20053;-96
2023/11/13 11:52:12;;;;;;;16.75;10.35;;;;;;;;;;6205253;28;20105;-96
2023/11/13 11:55:38;;;;;;;17.85;11.32;;;;;;;;;;6178815;28;20061;-95
2023/11/13 11:58:40;;;;;;;12.40;9.90;;;;;;;;;;6195721;28;20050;-95
2023/11/13 12:01:43;;;;;;;16.48;10.52;;;;;;;;;;6185596;28;20085;-95
2023/11/13 12:04:46;;;;;;;13.52;9.98;;;;;;;;;;6182698;28;20042;-96
2023/11/13 12:07:50;;;;;;;;;;;;;;;;;;6169919;28;20058;-96
2023/11/13 12:10:54;;;;;;;16.17;10.40;;;;;;;;;;6204018;28;19917;-94
2023/11/13 12:18:13;;;;;;;16.40;10.32;;;;;;;;;;6170817;28;20036;-96
2023/11/13 12:21:15;;;;;;;22.17;10.98;;;;;;;;;;6288824;28;20041;-96
2023/11/13 12:24:19;;;;;;;14.63;10.60;;;;;;;;;;6249201;28;20085;-96
2023/11/13 12:30:40;;;;;;;18.25;12.38;;;;;;;;;;6240849;28;20060;-95
2023/11/13 12:33:44;;;;;;;16.27;12.07;;;;;;;;;;6267446;28;20659;-95
2023/11/13 12:37:06;;;;;;;14.73;10.15;;;;;;;;;;6270676;28;20052;-96
2023/11/13 12:46:47;;;;;;;13.48;10.95;;;;;;;;;;6265153;28;20081;-95
2023/11/13 12:49:49;;;;;;;17.98;11.48;;;;;;;;;;6267839;28;20037;-96
2023/11/13 12:52:53;;;;;;;17.97;11.37;;;;;;;;;;6254144;28;20691;-94
2023/11/13 12:55:55;;;;;;;18.88;12.45;;;;;;;;;;6245106;28;20045;-95
2023/11/13 12:58:59;;;;;;;13.27;10.75;;;;;;;;;;6264456;28;20659;-94
2023/11/13 13:02:04;;;;;;;17.63;11.98;;;;;;;;;;6243562;28;20041;-95
2023/11/13 13:05:11;;;;;;;13.90;10.75;;;;;;;;;;6260855;28;20092;-96
2023/11/13 13:08:12;;;;;;;15.93;12.23;;;;;;;;;;6259117;28;20088;-96
2023/11/13 13:11:15;;;;;;;18.80;12.32;;;;;;;;;;6265084;28;20044;-96
2023/11/13 13:14:22;;;;;;;14.93;11.93;;;;;;;;;;6262805;28;20049;-96
2023/11/13 13:17:26;;;;;;;18.73;12.52;;;;;;;;;;6251131;28;20469;-96
2023/11/13 13:20:30;;;;;;;18.35;12.57;;;;;;;;;;6266722;28;20063;-96
2023/11/13 13:23:32;;;;;;;17.70;12.73;;;;;;;;;;6258923;28;20624;-96
2023/11/13 13:26:36;;;;;;;19.55;11.60;;;;;;;;;;6261075;28;20550;-95
2023/11/13 13:29:39;;;;;;;16.02;11.13;;;;;;;;;;6253870;28;20055;-95
2023/11/13 13:32:43;;;;;;;18.67;12.13;;;;;;;;;;6268086;28;20060;-95
2023/11/13 13:39:20;;;;;;;17.33;11.70;;;;;;;;;;6279267;22;20039;-97
2023/11/13 13:42:21;;;;;;;14.95;12.00;;;;;;;;;;6264614;28;20305;-96
2023/11/13 13:45:25;;;;;;;19.10;13.15;;;;;;;;;;6257839;28;20037;-96
2023/11/13 13:48:27;;;;;;;;;;;;;;;;;;6268837;28;20049;-96
2023/11/13 13:51:29;;;;;;;20.35;13.52;;;;;;;;;;6267242;28;19917;-96
2023/11/13 13:54:31;;;;;;;20.17;14.13;;;;;;;;;;6263186;28;20354;-96
2023/11/13 13:57:32;;;;;;;18.17;13.73;;;;;;;;;;6264064;28;20052;-94
2023/11/13 14:00:36;;;;;;;20.60;13.57;;;;;;;;;;6284235;28;20052;-96
2023/11/13 14:03:40;;;;;;;21.40;14.98;;;;;;;;;;6286073;28;20083;-96
2023/11/13 14:06:46;;;;;;;21.38;14.27;;;;;;;;;;6291388;28;20092;-88
2023/11/13 14:09:48;;;;;;;20.52;14.77;;;;;;;;;;6264248;28;20136;-90
2023/11/13 14:12:50;;;;;;;19.88;14.18;;;;;;;;;;6260922;28;20065;-90
2023/11/13 14:15:53;;;;;;;21.15;14.50;;;;;;;;;;6256976;28;20053;-91
2023/11/13 14:18:57;;;;;;;19.45;13.70;;;;;;;;;;6255962;28;20057;-89
2023/11/13 14:21:59;;;;;;;18.50;13.75;;;;;;;;;;6279147;28;20040;-92
2023/11/13 14:25:03;;;;;;;18.65;13.15;;;;;;;;;;6282108;28;20437;-91
2023/11/13 14:28:05;;;;;;;20.08;12.80;;;;;;;;;;6256440;28;20067;-93
2023/11/13 14:31:09;;;;;;;20.33;13.73;;;;;;;;;;6257257;28;20053;-92
2023/11/13 14:34:11;;;;;;;20.02;13.50;;;;;;;;;;6257556;28;20309;-92
2023/11/13 14:37:14;;;;;;;20.20;13.35;;;;;;;;;;6251870;28;20057;-92
2023/11/13 14:40:16;;;;;;;17.70;13.13;;;;;;;;;;6232738;28;20046;-85
2023/11/13 14:43:20;;;;;;;19.50;13.50;;;;;;;;;;6254786;28;20065;-87
2023/11/13 14:46:23;;;;;;;17.98;13.50;;;;;;;;;;6257895;28;20056;-87
2023/11/13 14:49:25;;;;;;;16.98;13.18;;;;;;;;;;6255946;28;20053;-89
2023/11/13 14:52:27;;;;;;;19.40;13.30;;;;;;;;;;6257219;28;20121;-89
2023/11/13 14:55:29;;;;;;;21.35;13.52;;;;;;;;;;6269678;28;20057;-86
2023/11/13 14:58:31;;;;;;;19.75;13.93;;;;;;;;;;6260792;28;20077;-89
2023/11/13 15:01:36;;;;;;;18.90;13.02;;;;;;;;;;6261445;28;20117;-84
2023/11/13 15:04:39;;;;;;;21.70;14.18;;;;;;;;;;6266346;28;20053;-89
2023/11/13 15:07:41;;;;;;;21.42;14.52;;;;;;;;;;6267819;28;20099;-84
2023/11/13 15:10:42;;;;;;;18.15;13.57;;;;;;;;;;6268003;28;20049;-84
2023/11/13 15:13:45;;;;;;;20.42;13.43;;;;;;;;;;6268326;28;20109;-86
2023/11/13 15:16:52;;;;;;;25.08;13.52;;;;;;;;;;6267642;28;20053;-96
2023/11/13 15:20:10;;;;;;;22.88;13.63;;;;;;;;;;6244828;28;20065;-96
2023/11/13 15:23:16;;;;;;;19.67;13.85;;;;;;;;;;6235522;28;20053;-96
2023/11/13 15:26:25;;;;;;;18.73;14.30;;;;;;;;;;6246403;28;20057;-95
2023/11/13 15:33:03;;;;;;;20.60;14.07;;;;;;;;;;6268991;28;20045;-96
2023/11/13 15:36:06;;;;;;;21.58;13.75;;;;;;;;;;6274905;28;20054;-95
2023/11/13 15:39:08;;;;;;;19.95;13.85;;;;;;;;;;6280753;28;20061;-96
2023/11/13 15:42:12;;;;;;;19.98;13.75;;;;;;;;;;6290194;28;20053;-96
2023/11/13 15:45:15;;;;;;;19.58;14.68;;;;;;;;;;6295604;28;20059;-96
2023/11/13 15:48:23;;;;;;;;;;;;;;;;;;6297325;28;20148;-96
2023/11/13 15:51:30;;;;;;;24.65;13.77;;;;;;;;;;6286936;28;19916;-96
2023/11/13 15:54:37;;;;;;;19.30;13.60;;;;;;;;;;6299155;28;20056;-96
2023/11/13 15:57:43;;;;;;;17.90;13.63;;;;;;;;;;6300767;28;20079;-95
2023/11/13 16:00:52;;;;;;;19.75;13.32;;;;;;;;;;6288681;28;20364;-96
2023/11/13 16:04:04;;;;;;;18.65;13.30;;;;;;;;;;6289245;28;20032;-95
2023/11/13 16:07:06;;;;;;;19.70;14.00;;;;;;;;;;6261927;28;20042;-96
2023/11/13 16:14:07;;;;;;;17.67;12.45;;;;;;;;;;6270417;28;20048;-96
2023/11/13 16:20:43;;;;;;;20.63;12.98;;;;;;;;;;6292409;28;20052;-96
2023/11/13 16:23:49;;;;;;;17.65;12.85;;;;;;;;;;6287735;28;20045;-95
2023/11/13 16:26:52;;;;;;;19.65;13.25;;;;;;;;;;6292152;28;20075;-85
2023/11/13 16:29:54;;;;;;;19.65;12.73;;;;;;;;;;6287524;28;20052;-84
2023/11/13 16:32:56;;;;;;;18.83;12.40;;;;;;;;;;6287095;28;20053;-83
2023/11/13 16:35:59;;;;;;;18.40;13.45;;;;;;;;;;6295268;28;20052;-84
2023/11/13 16:39:01;;;;;;;19.90;13.50;;;;;;;;;;6274566;28;20053;-83
2023/11/13 16:42:03;;;;;;;19.33;12.52;;;;;;;;;;6264870;28;20348;-88
2023/11/13 16:45:09;;;;;;;18.80;12.30;;;;;;;;;;6264055;28;20061;-86
2023/11/13 16:48:10;;;;;;;141.00;74.97;;;;;;;;;;6270159;28;20048;-87
2023/11/13 16:51:17;;;;;;;110.55;50.13;;;;;;;;;;6276088;28;20045;-86
2023/11/13 16:54:21;;;;;;;94.88;45.47;;;;;;;;;;6276785;28;20060;-86
2023/11/13 16:57:22;;;;;;;43.75;24.27;;;;;;;;;;6275959;28;20064;-84
2023/11/13 17:00:25;;;;;;;29.20;18.50;;;;;;;;;;6277141;28;20066;-83
2023/11/13 17:03:27;;;;;;;66.63;35.70;;;;;;;;;;6274137;28;20045;-83
2023/11/13 17:06:32;;;;;;;26.25;16.35;;;;;;;;;;6273905;28;20244;-83
2023/11/13 17:09:34;;;;;;;17.05;12.32;;;;;;;;;;6269304;28;20053;-83
2023/11/13 17:12:41;;;;;;;18.25;12.98;;;;;;;;;;6268971;28;20068;-83
2023/11/13 17:15:43;;;;;;;21.42;13.43;;;;;;;;;;6257395;28;20076;-83
2023/11/13 17:18:45;;;;;;;17.83;12.43;;;;;;;;;;6269528;28;20122;-84
2023/11/13 17:21:49;;;;;;;17.50;12.57;;;;;;;;;;6270757;28;20049;-83
2023/11/13 17:24:51;;;;;;;19.67;12.63;;;;;;;;;;6270073;28;20113;-84
2023/11/13 17:27:53;;;;;;;19.77;12.30;;;;;;;;;;6271725;28;20080;-82
2023/11/13 17:30:56;;;;;;;19.52;12.70;;;;;;;;;;6255690;28;20048;-82
2023/11/13 17:33:58;;;;;;;22.42;11.45;;;;;;;;;;6270171;28;20041;-83
2023/11/13 17:37:03;;;;;;;18.58;12.02;;;;;;;;;;6271472;28;20079;-83
2023/11/13 17:40:07;;;;;;;20.73;12.40;;;;;;;;;;6298671;28;20045;-85
2023/11/13 17:43:09;;;;;;;17.88;12.00;;;;;;;;;;6295351;28;20059;-84
2023/11/13 17:46:11;;;;;;;19.98;12.77;;;;;;;;;;6295380;28;20029;-82
2023/11/13 17:49:13;;;;;;;19.25;12.32;;;;;;;;;;6294076;28;20040;-84
2023/11/13 17:52:17;;;;;;;19.50;12.05;;;;;;;;;;6293937;28;20104;-84
2023/11/13 17:55:20;;;;;;;18.63;11.95;;;;;;;;;;6294038;28;20052;-87
2023/11/13 17:58:22;;;;;;;19.30;11.60;;;;;;;;;;6292293;28;20063;-85
2023/11/13 18:01:24;;;;;;;19.23;13.00;;;;;;;;;;6294253;28;20049;-83
2023/11/13 18:04:27;;;;;;;21.45;11.85;;;;;;;;;;6292751;28;20060;-83
2023/11/13 18:07:30;;;;;;;20.58;12.00;;;;;;;;;;6296089;28;20076;-83
2023/11/13 18:10:32;;;;;;;23.17;12.02;;;;;;;;;;6293710;28;20068;-84
2023/11/13 18:13:35;;;;;;;17.98;12.38;;;;;;;;;;6295378;28;20064;-84
2023/11/13 18:16:37;;;;;;;19.38;12.68;;;;;;;;;;6295378;28;20064;-82
2023/11/13 18:19:42;;;;;;;19.80;12.73;;;;;;;;;;6294544;28;20053;-84
2023/11/13 18:22:47;;;;;;;20.30;13.32;;;;;;;;;;6294737;28;20058;-84
2023/11/13 18:25:49;;;;;;;18.15;12.57;;;;;;;;;;6292691;28;20056;-83
2023/11/13 18:28:51;;;;;;;19.95;12.18;;;;;;;;;;6293373;28;20421;-84
2023/11/13 18:31:54;;;;;;;25.05;12.93;;;;;;;;;;6296434;28;20052;-84
2023/11/13 18:34:56;;;;;;;17.17;12.52;;;;;;;;;;6297035;28;20053;-84
2023/11/13 18:38:00;;;;;;;17.73;11.52;;;;;;;;;;6294063;28;20355;-84
2023/11/13 18:41:02;;;;;;;;;;;;;;;;;;6296504;28;20051;-84
2023/11/13 18:44:04;;;;;;;17.45;11.70;;;;;;;;;;6294060;28;19917;-83
2023/11/13 18:47:07;;;;;;;17.75;12.57;;;;;;;;;;6292632;28;20029;-84
2023/11/13 18:50:09;;;;;;;20.88;12.43;;;;;;;;;;6292454;28;20060;-83
2023/11/13 18:53:12;;;;;;;18.83;13.02;;;;;;;;;;6288547;28;20064;-83
2023/11/13 18:56:14;;;;;;;22.87;13.10;;;;;;;;;;6291851;28;20063;-83
2023/11/13 18:59:17;;;;;;;21.48;13.10;;;;;;;;;;6289189;28;20467;-83
2023/11/13 19:02:19;;;;;;;26.02;13.05;;;;;;;;;;6287495;28;20099;-83
2023/11/13 19:05:22;;;;;;;19.30;12.27;;;;;;;;;;6289964;28;20321;-83
2023/11/13 19:08:25;;;;;;;19.67;13.05;;;;;;;;;;6291405;28;20345;-88
2023/11/13 19:11:33;;;;;;;22.15;13.68;;;;;;;;;;6289469;28;20052;-82
2023/11/13 19:14:35;;;;;;;23.48;13.48;;;;;;;;;;6289117;28;20101;-82
2023/11/13 19:17:38;;;;;;;18.38;13.40;;;;;;;;;;6294360;28;20052;-83
2023/11/13 19:20:40;;;;;;;17.93;12.97;;;;;;;;;;6294677;28;20344;-83
2023/11/13 19:23:47;;;;;;;19.38;13.73;;;;;;;;;;6295637;28;20094;-84
2023/11/13 19:26:51;;;;;;;20.27;13.85;;;;;;;;;;6301416;28;20049;-82
2023/11/13 19:29:56;;;;;;;20.48;13.40;;;;;;;;;;6297095;28;20356;-82
2023/11/13 19:32:58;;;;;;;21.25;13.60;;;;;;;;;;6295378;28;20087;-83
2023/11/13 19:36:02;;;;;;;21.00;13.40;;;;;;;;;;6294896;28;20045;-84
2023/11/13 19:39:06;;;;;;;22.10;14.32;;;;;;;;;;6295571;28;20053;-86
2023/11/13 19:42:09;;;;;;;21.98;13.93;;;;;;;;;;6295963;28;20056;-83
2023/11/13 19:45:12;;;;;;;18.15;13.05;;;;;;;;;;6296134;28;20049;-84
2023/11/13 19:48:16;;;;;;;22.23;13.85;;;;;;;;;;6295763;28;20340;-83
2023/11/13 19:51:18;;;;;;;;;;;;;;;;;;6294732;28;20056;-83
2023/11/13 19:54:24;;;;;;;17.92;13.80;;;;;;;;;;6291917;28;20147;-83
2023/11/13 20:01:12;;;;;;;20.65;13.43;;;;;;;;;;6286444;23;20431;-96
2023/11/13 20:04:15;;;;;;;24.35;15.35;;;;;;;;;;6255230;28;20131;-96
2023/11/13 20:07:18;;;;;;;23.07;14.27;;;;;;;;;;6229206;28;20513;-96
2023/11/13 20:13:39;;;;;;;22.70;14.32;;;;;;;;;;6237668;28;20120;-96
2023/11/13 20:20:25;;;;;;;25.23;15.55;;;;;;;;;;6254080;28;20057;-96
2023/11/13 20:48:41;;;;;;;27.25;16.33;;;;;;;;;;6177492;28;20061;-95
2023/11/13 21:06:21;;;;;;;22.48;15.07;;;;;;;;;;6221151;22;20134;-83
2023/11/13 21:09:24;;;;;;;25.80;15.75;;;;;;;;;;6303593;28;20079;-84
2023/11/13 21:12:27;;;;;;;22.30;15.27;;;;;;;;;;6295139;28;20138;-86
2023/11/13 21:15:29;;;;;;;23.65;15.65;;;;;;;;;;6307330;28;20108;-84
2023/11/13 21:18:32;;;;;;;24.60;16.27;;;;;;;;;;6294057;28;20053;-85
2023/11/13 21:21:37;;;;;;;24.27;15.93;;;;;;;;;;6299559;28;20164;-83
2023/11/13 21:24:39;;;;;;;23.27;14.20;;;;;;;;;;6297463;28;20527;-83
2023/11/13 21:27:41;;;;;;;21.35;15.13;;;;;;;;;;6278487;28;20048;-83
2023/11/13 21:30:42;;;;;;;21.77;15.23;;;;;;;;;;6281981;28;20241;-83
2023/11/13 21:33:46;;;;;;;24.38;14.60;;;;;;;;;;6279353;28;20121;-83
2023/11/13 21:36:50;;;;;;;21.03;15.17;;;;;;;;;;6285028;28;20113;-83
2023/11/13 21:39:53;;;;;;;;;;;;;;;;;;6279774;28;20075;-84
2023/11/13 21:42:57;;;;;;;20.10;13.02;;;;;;;;;;6280794;28;19995;-84
2023/11/13 21:45:59;;;;;;;25.85;15.02;;;;;;;;;;6285907;28;20068;-83
2023/11/13 21:49:04;;;;;;;21.23;14.60;;;;;;;;;;6279599;28;20045;-82
2023/11/13 21:52:08;;;;;;;19.73;14.15;;;;;;;;;;6305427;28;20116;-83
2023/11/13 21:55:10;;;;;;;;;;;;;;;;;;6304190;28;20056;-82
2023/11/13 21:58:11;;;;;;;22.83;14.60;;;;;;;;;;6299059;28;19999;-83
2023/11/13 22:01:13;;;;;;;24.60;14.82;;;;;;;;;;6298371;28;20061;-83
2023/11/13 22:04:17;;;;;;;22.45;15.60;;;;;;;;;;6304022;28;20111;-83
2023/11/13 22:07:19;;;;;;;22.93;15.27;;;;;;;;;;6303364;28;20028;-83
2023/11/13 22:10:33;;;;;;;21.05;15.38;;;;;;;;;;6299457;28;20541;-83
2023/11/13 22:13:36;;;;;;;20.05;14.40;;;;;;;;;;6306910;28;20078;-83
2023/11/13 22:16:38;;;;;;;23.93;15.37;;;;;;;;;;6300515;28;20048;-83
2023/11/13 22:19:41;;;;;;;24.85;15.48;;;;;;;;;;6301247;28;20478;-83
2023/11/13 22:22:43;;;;;;;22.02;14.80;;;;;;;;;;6300893;28;20092;-83
2023/11/13 22:25:45;;;;;;;22.42;15.05;;;;;;;;;;6304541;28;20056;-83
2023/11/13 22:28:48;;;;;;;27.33;15.48;;;;;;;;;;6305448;28;20076;-84
2023/11/13 22:31:50;;;;;;;22.40;16.50;;;;;;;;;;6300767;28;20051;-83
2023/11/13 22:34:54;;;;;;;22.45;15.93;;;;;;;;;;6309088;28;20503;-83
2023/11/13 22:37:56;;;;;;;26.00;17.10;;;;;;;;;;6302379;28;20120;-83
2023/11/13 22:40:57;;;;;;;24.73;17.05;;;;;;;;;;6294615;28;20064;-84
2023/11/13 22:43:59;;;;;;;24.15;16.02;;;;;;;;;;6307805;28;20060;-83
2023/11/13 22:47:02;;;;;;;23.58;16.60;;;;;;;;;;6308232;28;20071;-83
2023/11/13 22:50:06;;;;;;;22.00;15.23;;;;;;;;;;6299009;28;20049;-84
2023/11/13 22:53:08;;;;;;;21.00;14.93;;;;;;;;;;6303988;28;20048;-84
2023/11/13 22:56:10;;;;;;;23.40;15.55;;;;;;;;;;6310724;28;20044;-85
2023/11/13 22:59:13;;;;;;;24.67;15.85;;;;;;;;;;6306565;28;20052;-84
2023/11/13 23:02:15;;;;;;;22.30;15.35;;;;;;;;;;6317688;28;20275;-84
2023/11/13 23:05:18;;;;;;;24.17;15.95;;;;;;;;;;6310829;28;20056;-84
2023/11/13 23:08:20;;;;;;;22.77;15.43;;;;;;;;;;6324888;28;20038;-84
2023/11/13 23:11:24;;;;;;;23.88;15.60;;;;;;;;;;6316004;28;20244;-84
2023/11/13 23:14:26;;;;;;;25.67;16.65;;;;;;;;;;6307436;28;20049;-84
2023/11/13 23:17:28;;;;;;;24.75;15.63;;;;;;;;;;6309065;28;20079;-84
2023/11/13 23:20:34;;;;;;;23.13;16.33;;;;;;;;;;6311608;28;20052;-84
2023/11/13 23:23:35;;;;;;;24.25;15.35;;;;;;;;;;6310152;28;20044;-84
2023/11/13 23:26:37;;;;;;;23.98;15.02;;;;;;;;;;6312358;28;20264;-83
2023/11/13 23:29:39;;;;;;;23.75;15.88;;;;;;;;;;6310580;28;20049;-83
2023/11/13 23:32:41;;;;;;;23.35;15.77;;;;;;;;;;6305771;28;20053;-83
2023/11/13 23:35:45;;;;;;;24.88;16.20;;;;;;;;;;6303345;28;20056;-83
2023/11/13 23:38:47;;;;;;;23.45;15.68;;;;;;;;;;6308705;28;20061;-84
2023/11/13 23:41:52;;;;;;;23.58;16.23;;;;;;;;;;6309930;28;20053;-85
2023/11/13 23:44:55;;;;;;;64.47;34.30;;;;;;;;;;6315674;28;20041;-83
2023/11/13 23:48:00;;;;;;;189.93;79.57;;;;;;;;;;6306354;28;20051;-84
2023/11/13 23:51:04;;;;;;;63.30;32.85;;;;;;;;;;6315111;28;20067;-84
2023/11/13 23:54:06;;;;;;;82.95;39.33;;;;;;;;;;6311848;28;20045;-86
2023/11/13 23:57:11;;;;;;;30.95;19.85;;;;;;;;;;6308877;28;20059;-84
